Bookmark and Share
Track history (hours):
 

Avalon

Last reported at 2014-Apr-21 14:32 UTC. Time now 2014-Apr-21 15:22 UTC.
Position N 54°35' W 001°15'.

Length 89 m; draft 3.7 m.

Type: Cargo ship. MMSI: 246578000.

NotesDate/timePositionNaut miles runAvg speedWind from/ knotsBaromVisibWave heightAir tempDewpointWater temp
2014-Apr-21 14:32N 54°35' W 001°15'0 0.0
2014-Apr-21 13:32N 54°35' W 001°15'0 0.0
2014-Apr-21 12:33N 54°35' W 001°15'0 0.0
2014-Apr-21 11:33N 54°35' W 001°15'0 0.0
2014-Apr-21 10:33N 54°35' W 001°15'0 0.0
2014-Apr-21 09:33N 54°35' W 001°15'0 0.0
2014-Apr-21 08:33N 54°35' W 001°15'0 0.0
2014-Apr-21 07:33N 54°35' W 001°15'0 0.0
2014-Apr-21 06:33N 54°35' W 001°15'0 0.0
2014-Apr-21 05:33N 54°35' W 001°15'0 0.0
2014-Apr-21 04:33N 54°35' W 001°15'0 0.0
2014-Apr-21 03:33N 54°35' W 001°15'0 0.0
2014-Apr-21 02:33N 54°35' W 001°15'0 0.0
2014-Apr-21 01:33N 54°35' W 001°15'0 0.0
2014-Apr-21 00:33N 54°35' W 001°15'0 0.0
2014-Apr-20 23:33N 54°35' W 001°15'0 0.0
2014-Apr-20 22:33N 54°35' W 001°15'0 0.0
2014-Apr-20 21:33N 54°35' W 001°15'6 6.0
2014-Apr-20 20:33N 54°40' W 001°08'7 7.1
2014-Apr-20 19:33N 54°40' W 000°56'5 5.4
2014-Apr-20 18:33N 54°39' W 000°46'9 9.4
2014-Apr-20 17:33N 54°37' W 000°31'1110.9
2014-Apr-20 16:33N 54°35' W 000°12'1211.5
2014-Apr-20 15:33N 54°33' E 000°08'1212.0
2014-Apr-20 14:33N 54°31' E 000°28'1212.1
2014-Apr-20 13:33N 54°29' E 000°48'1212.0
2014-Apr-20 12:33N 54°27' E 001°09'1411.7
2014-Apr-20 11:21N 54°24' E 001°32'12810.9
2014-Apr-19 23:33N 53°44' E 005°00'1110.7
2014-Apr-19 22:33N 53°45' E 005°18'1110.5
2014-Apr-19 21:33N 53°45' E 005°36'9 9.3
2014-Apr-19 20:33N 53°43' E 005°52'9 8.9
2014-Apr-19 19:33N 53°38' E 006°03'1211.8
2014-Apr-19 18:33N 53°37' E 006°23'1212.4
2014-Apr-19 17:33N 53°33' E 006°43'1413.9
2014-Apr-19 16:34N 53°22' E 006°58'3 3.0
2014-Apr-19 15:33N 53°20' E 006°56'0 0.0
2014-Apr-19 14:33N 53°20' E 006°56'0 0.1
2014-Apr-19 13:32N 53°20' E 006°56'0 0.0
2014-Apr-19 12:32N 53°20' E 006°56'0 0.0
2014-Apr-19 11:32N 53°20' E 006°56'0 0.0
2014-Apr-19 10:32N 53°20' E 006°56'0 0.0
2014-Apr-19 09:32N 53°20' E 006°56'0 0.0
2014-Apr-19 08:32N 53°20' E 006°56'0 0.0
2014-Apr-19 07:32N 53°20' E 006°56'0 0.0
2014-Apr-19 06:34N 53°20' E 006°56'0 0.0
2014-Apr-19 05:33N 53°20' E 006°56'0 0.0
2014-Apr-19 04:34N 53°20' E 006°56'0 0.0
2014-Apr-19 03:33N 53°20' E 006°56'0 0.0
2014-Apr-19 02:34N 53°20' E 006°56'0 0.0
2014-Apr-19 01:33N 53°20' E 006°56'0 0.0
2014-Apr-19 00:34N 53°20' E 006°56'0 0.0
2014-Apr-18 23:33N 53°20' E 006°56'0 0.0
2014-Apr-18 22:33N 53°20' E 006°56'0 0.0
2014-Apr-18 21:33N 53°20' E 006°56'0 0.0
2014-Apr-18 20:34N 53°20' E 006°56'0 0.0
2014-Apr-18 19:33N 53°20' E 006°56'0 0.0
2014-Apr-18 18:34N 53°20' E 006°56'0 0.0
2014-Apr-18 17:33N 53°20' E 006°56'0 0.0
2014-Apr-18 16:33N 53°20' E 006°56'0 0.0
2014-Apr-18 15:33N 53°20' E 006°56'0 0.0
2014-Apr-18 14:33N 53°20' E 006°56'0 0.0
2014-Apr-18 13:33N 53°20' E 006°56'0 0.0
2014-Apr-18 12:33N 53°20' E 006°56'0 0.0
2014-Apr-18 11:33N 53°20' E 006°56'0 0.0
2014-Apr-18 10:34N 53°20' E 006°56'0 0.0
2014-Apr-18 09:33N 53°20' E 006°56'0 0.0
2014-Apr-18 08:33N 53°20' E 006°56'0 0.0
2014-Apr-18 07:33N 53°20' E 006°56'0 0.0
2014-Apr-18 06:33N 53°20' E 006°56'0 0.0
2014-Apr-18 05:33N 53°20' E 006°56'0 0.0
2014-Apr-18 04:33N 53°20' E 006°56'0 0.0
2014-Apr-18 03:33N 53°20' E 006°56'0 0.0
2014-Apr-18 02:33N 53°20' E 006°56'0 0.0
2014-Apr-18 01:33N 53°20' E 006°56'0 0.0
2014-Apr-18 00:33N 53°20' E 006°56'0 0.0
2014-Apr-17 23:33N 53°20' E 006°56'0 0.0
2014-Apr-17 22:33N 53°20' E 006°56'0 0.0
2014-Apr-17 21:33N 53°20' E 006°56'0 0.0
2014-Apr-17 20:33N 53°20' E 006°56'0 0.0
2014-Apr-17 19:33N 53°20' E 006°56'0 0.0
2014-Apr-17 18:33N 53°20' E 006°56'0 0.0
2014-Apr-17 17:33N 53°20' E 006°56'0 0.0
2014-Apr-17 16:33N 53°20' E 006°56'0 0.0
2014-Apr-17 15:33N 53°20' E 006°56'0 0.0
2014-Apr-17 14:33N 53°20' E 006°56'0 0.0
2014-Apr-17 13:33N 53°20' E 006°56'0 0.0
2014-Apr-17 12:34N 53°20' E 006°56'0 0.0
2014-Apr-17 11:33N 53°20' E 006°56'0 0.0
2014-Apr-17 10:33N 53°20' E 006°56'0 0.0
2014-Apr-17 09:33N 53°20' E 006°56'0 0.0
2014-Apr-17 08:33N 53°20' E 006°56'0 0.0
2014-Apr-17 07:33N 53°20' E 006°56'0 0.0
2014-Apr-17 06:33N 53°20' E 006°56'0 0.0
2014-Apr-17 05:33N 53°20' E 006°56'0 0.0
2014-Apr-17 04:33N 53°20' E 006°56'0 0.0
2014-Apr-17 03:34N 53°20' E 006°56'0 0.0
2014-Apr-17 02:33N 53°20' E 006°56'0 0.0
2014-Apr-17 01:33N 53°20' E 006°56'0 0.0
2014-Apr-17 00:33N 53°20' E 006°56'0 0.0
2014-Apr-16 23:33N 53°20' E 006°56'0 0.0
2014-Apr-16 22:33N 53°20' E 006°56'0 0.0
2014-Apr-16 21:33N 53°20' E 006°56'0 0.0
2014-Apr-16 20:33N 53°20' E 006°56'0 0.0
2014-Apr-16 19:33N 53°20' E 006°56'0 0.0
2014-Apr-16 18:33N 53°20' E 006°56'0 0.0
2014-Apr-16 17:34N 53°20' E 006°56'0 0.0
2014-Apr-16 16:33N 53°20' E 006°56'0 0.0
2014-Apr-16 15:34N 53°20' E 006°56'0 0.0
2014-Apr-16 14:34N 53°20' E 006°56'0 0.0
2014-Apr-16 13:34N 53°20' E 006°56'0 0.0
2014-Apr-16 12:34N 53°20' E 006°56'0 0.0
2014-Apr-16 11:34N 53°20' E 006°56'0 0.0
2014-Apr-16 10:34N 53°20' E 006°56'0 0.0
2014-Apr-16 09:34N 53°20' E 006°56'0 0.0
2014-Apr-16 08:34N 53°20' E 006°56'0 0.0
2014-Apr-16 07:34N 53°20' E 006°56'0 0.0
2014-Apr-16 06:34N 53°20' E 006°56'0 0.0
2014-Apr-16 05:33N 53°20' E 006°56'0 0.0
2014-Apr-16 04:33N 53°20' E 006°56'0 0.0
2014-Apr-16 03:34N 53°20' E 006°56'0 0.0
2014-Apr-16 02:34N 53°20' E 006°56'0 0.0
2014-Apr-16 01:33N 53°20' E 006°56'0 0.0
2014-Apr-16 00:33N 53°20' E 006°56'0 0.0
2014-Apr-15 23:34N 53°20' E 006°56'0 0.0
2014-Apr-15 22:33N 53°20' E 006°56'0 0.0
2014-Apr-15 21:33N 53°20' E 006°56'0 0.0
2014-Apr-15 20:33N 53°20' E 006°56'0 0.0
2014-Apr-15 19:33N 53°20' E 006°56'0 0.0
2014-Apr-15 18:34N 53°20' E 006°56'0 0.0
2014-Apr-15 17:33N 53°20' E 006°56'0 0.0
2014-Apr-15 16:33N 53°20' E 006°56'0 0.0
2014-Apr-15 15:33N 53°20' E 006°56'0 0.0
2014-Apr-15 14:33N 53°20' E 006°56'0 0.0
2014-Apr-15 12:34N 53°20' E 006°56'0 0.0
2014-Apr-15 11:34N 53°20' E 006°56'0 0.0
2014-Apr-15 10:34N 53°20' E 006°56'0 0.0
2014-Apr-15 09:34N 53°20' E 006°56'0 0.0
2014-Apr-15 08:34N 53°20' E 006°56'0 0.0
2014-Apr-15 07:34N 53°20' E 006°56'0 0.0
2014-Apr-15 06:34N 53°20' E 006°56'0 0.0
2014-Apr-15 05:34N 53°20' E 006°56'0 0.0
2014-Apr-15 03:34N 53°20' E 006°56'0 0.0
2014-Apr-15 02:34N 53°20' E 006°56'0 0.0
2014-Apr-15 01:34N 53°20' E 006°56'0 0.0
2014-Apr-15 00:34N 53°20' E 006°56'0 0.0
2014-Apr-14 23:34N 53°20' E 006°56'0 0.0
2014-Apr-14 22:34N 53°20' E 006°56'0 0.0
2014-Apr-14 21:34N 53°20' E 006°56'0 0.0
2014-Apr-14 20:34N 53°20' E 006°56'0 0.0
2014-Apr-14 19:34N 53°20' E 006°56'0 0.0
2014-Apr-14 18:34N 53°20' E 006°56'0 0.0
2014-Apr-14 17:34N 53°20' E 006°56'0 0.0
2014-Apr-14 16:34N 53°20' E 006°56'0 0.0
2014-Apr-14 15:34N 53°20' E 006°56'0 0.0
2014-Apr-14 14:34N 53°20' E 006°56'0 0.0
2014-Apr-14 13:34N 53°20' E 006°56'0 0.0
2014-Apr-14 11:34N 53°20' E 006°56'0 0.0
2014-Apr-14 10:34N 53°20' E 006°56'0 0.0
2014-Apr-14 09:33N 53°20' E 006°56'0 0.0
2014-Apr-14 08:34N 53°20' E 006°56'0 0.0
2014-Apr-14 07:33N 53°20' E 006°56'0 0.0
2014-Apr-14 06:34N 53°20' E 006°56'0 0.0
2014-Apr-14 05:33N 53°20' E 006°56'0 0.0
2014-Apr-13 22:33N 53°20' E 006°56'0 0.0
2014-Apr-13 21:33N 53°20' E 006°56'0 0.0
2014-Apr-13 20:33N 53°20' E 006°56'0 0.0
2014-Apr-13 19:33N 53°20' E 006°56'0 0.0
2014-Apr-13 18:34N 53°20' E 006°56'0 0.0
2014-Apr-13 17:34N 53°20' E 006°56'0 0.0
2014-Apr-13 16:34N 53°20' E 006°56'0 0.0
2014-Apr-13 15:33N 53°20' E 006°56'0 0.0
2014-Apr-13 14:33N 53°20' E 006°56'0 0.0
2014-Apr-13 13:33N 53°20' E 006°56'0 0.0
2014-Apr-13 12:33N 53°20' E 006°56'0 0.0
2014-Apr-13 11:33N 53°20' E 006°56'0 0.0
2014-Apr-13 10:34N 53°20' E 006°56'0 0.0
2014-Apr-13 09:33N 53°20' E 006°56'0 0.0
2014-Apr-13 08:33N 53°20' E 006°56'0 0.0
2014-Apr-13 07:34N 53°20' E 006°56'0 0.0
2014-Apr-13 06:34N 53°20' E 006°56'0 0.0
2014-Apr-13 05:33N 53°20' E 006°56'0 0.0
2014-Apr-13 04:33N 53°20' E 006°56'0 0.0
2014-Apr-13 03:34N 53°20' E 006°56'0 0.0
2014-Apr-13 02:33N 53°20' E 006°56'0 0.0
2014-Apr-13 01:34N 53°20' E 006°56'0 0.0
2014-Apr-13 00:34N 53°20' E 006°56'0 0.0
2014-Apr-12 23:34N 53°20' E 006°56'0 0.0
2014-Apr-12 22:34N 53°20' E 006°56'0 0.0
2014-Apr-12 21:33N 53°20' E 006°56'0 0.0
2014-Apr-12 20:33N 53°20' E 006°56'0 0.0
2014-Apr-12 19:34N 53°20' E 006°56'0 0.0
2014-Apr-12 18:34N 53°20' E 006°56'0 0.0
2014-Apr-12 17:34N 53°20' E 006°56'0 0.0
2014-Apr-12 16:34N 53°20' E 006°56'0 0.0
2014-Apr-12 15:33N 53°20' E 006°56'0 0.0
2014-Apr-12 14:34N 53°20' E 006°56'0 0.0
2014-Apr-12 13:33N 53°20' E 006°56'0 0.0
2014-Apr-12 12:34N 53°20' E 006°56'0 0.0
2014-Apr-12 11:34N 53°20' E 006°56'0 0.0
2014-Apr-12 10:34N 53°20' E 006°56'0 0.0
2014-Apr-12 09:33N 53°20' E 006°56'0 0.0
2014-Apr-12 08:34N 53°20' E 006°56'0 0.0
2014-Apr-12 07:33N 53°20' E 006°56'0 0.0
2014-Apr-12 06:34N 53°20' E 006°56'0 0.0
2014-Apr-12 05:34N 53°20' E 006°56'0 0.0
2014-Apr-12 04:34N 53°20' E 006°56'0 0.0
2014-Apr-12 03:34N 53°20' E 006°56'0 0.0
2014-Apr-12 02:34N 53°20' E 006°56'0 0.0
2014-Apr-12 01:34N 53°20' E 006°56'0 0.0
2014-Apr-12 00:34N 53°20' E 006°56'0 0.0
2014-Apr-11 23:34N 53°20' E 006°56'0 0.0
2014-Apr-11 22:34N 53°20' E 006°56'0 0.0
2014-Apr-11 21:34N 53°20' E 006°56'0 0.0
2014-Apr-11 20:34N 53°20' E 006°56'0 0.0
2014-Apr-11 19:34N 53°20' E 006°56'0 0.0
2014-Apr-11 18:34N 53°20' E 006°56'0 0.0
2014-Apr-11 17:34N 53°20' E 006°56'0 0.0
2014-Apr-11 16:33N 53°20' E 006°56'0 0.0
2014-Apr-11 15:34N 53°20' E 006°56'0 0.0
2014-Apr-11 14:33N 53°20' E 006°56'  

Dump ship's entire track history

sailing weather and tide predictions

Avalon — PBSF — position and weather